Terminal Aerodrome Forecast
Issued by NWS Goodland, KS

Home | Current Version | Previous Version | Text Only | Print | Product List | Glossary On
Versions: 1 2 3 4 5 6 7 8 9 10 11 12 13 14 15 16 17 18 19 20 21 22
713
FTUS43 KGLD 310227 AAB
TAFGLD
TAF AMD
KGLD 310227Z 3102/3124 VRB05KT P6SM OVC100
     FM310500 VRB05KT P6SM BKN030
     FM310900 VRB03KT 5SM BR BKN003
      TEMPO 3110/3114 1/4SM FG VV001
     FM311600 13004KT P6SM BKN035
     FM312000 10008KT P6SM BKN045=

USA.gov is the U.S. government's official web portal to all federal, state and local government web resources and services.